Ana Sayfa
METAR-TAF:

METAR-TAF

Havaalanları :

Troy, Alabama, Amerika Birleşik Devletleri

Enlem: 31-51-38N, Boylam: 086-00-44W, yükseklik: 121 m

Güncel hava durumu gözlemi

Rapor saat 17:53 UTC de 32 dakika önce yapıldı.
Rüzgar batı/kuzeybatıdan 6 kt
Sıcaklık 36°C
Nem 33%
Basınç 1015 hPa
Görüş mesafesi: 16.1 km
Açık gökyüzü

METAR: KTOI 251753Z AUTO 30006KT 10SM CLR 36/17 A2996 RMK AO2 SLP140 T03610167 10361 20239 58004

Saat: 13:25 (18:25 UTC)

Tahmin

Rapor saat 05:45 UTC de 12 saat ve 40 dakika önce yapıldı.
Ayın 25'si saat 06 UTC'den ayın 26'si saat 06 UTC'ye kadar geçerli Tahmin
Rüzgar kuzeydan kt
Görüş mesafesi: 10 km
Açık gökyüzü
Ayın 25'si saat 1600 UTC'den
Rüzgar kuzey/kuzeybatıdan 5 kt
Görüş mesafesi: 10 km
5000 ft yükseklikte parçalı bulutlu
Ayın 26'si saat 0100 UTC'den
Rüzgar değişken yönden 3 kt
Görüş mesafesi: 10 km
25000 ft yükseklikte az bulutlu

TAF: KTOI 250545Z 2506/2606 00000KT P6SM SKC FM251600 34005KT P6SM SCT050 FM260100 VRB03KT P6SM FEW250

4.000'den fazla havaalanı için hava durumu gözlemleri ve tahminleri (METAR ve TAF raporları).

Kullanılabilir istasyonlar harita üzerinde sarı ve kırmızı noktalarla gösterilir.

İstasyonun adını görmek için fareyi noktanın üzerinde gezdirin.

Sonrasında hava gözlem ve tahminlerini görmek için tıklayın.

Haritayı değiştirmek için: yaklaştırmak için siyah artı işaretli yeşil düğmeye ve uzaklaştırmak için de eksi işaretli düğmeye hızla tıklayın; bitişik haritalar için yeşil okları kullanın.


METAR-TAF: